sensor_id;sensor_type;location;lat;lon;timestamp;pressure;altitude;pressure_sealevel;temperature;humidity
71666;BME280;59503;53.486;10.196;2023-02-01T00:01:55;101164.84;;;3.89;100.00
71666;BME280;59503;53.486;10.196;2023-02-01T00:04:21;101165.28;;;3.83;100.00
71666;BME280;59503;53.486;10.196;2023-02-01T00:06:46;101158.91;;;3.78;100.00
71666;BME280;59503;53.486;10.196;2023-02-01T00:09:12;101160.44;;;3.71;100.00
71666;BME280;59503;53.486;10.196;2023-02-01T00:11:38;101148.91;;;3.70;100.00
71666;BME280;59503;53.486;10.196;2023-02-01T00:14:03;101169.47;;;3.75;100.00
71666;BME280;59503;53.486;10.196;2023-02-01T00:16:30;101153.84;;;3.77;100.00
71666;BME280;59503;53.486;10.196;2023-02-01T00:19:01;101156.59;;;3.86;100.00
71666;BME280;59503;53.486;10.196;2023-02-01T00:21:27;101137.59;;;3.82;100.00
71666;BME280;59503;53.486;10.196;2023-02-01T00:23:53;101140.94;;;3.88;100.00
71666;BME280;59503;53.486;10.196;2023-02-01T00:26:30;101135.44;;;3.93;100.00
71666;BME280;59503;53.486;10.196;2023-02-01T00:28:56;101140.19;;;3.96;100.00
71666;BME280;59503;53.486;10.196;2023-02-01T00:31:22;101151.31;;;4.03;100.00
71666;BME280;59503;53.486;10.196;2023-02-01T00:33:48;101141.25;;;4.08;100.00
71666;BME280;59503;53.486;10.196;2023-02-01T00:36:14;101139.38;;;4.17;100.00
71666;BME280;59503;53.486;10.196;2023-02-01T00:38:40;101132.13;;;4.26;100.00
71666;BME280;59503;53.486;10.196;2023-02-01T00:41:09;101134.97;;;4.21;100.00
71666;BME280;59503;53.486;10.196;2023-02-01T00:43:35;101134.03;;;4.26;100.00
71666;BME280;59503;53.486;10.196;2023-02-01T00:46:01;101135.59;;;4.27;100.00
71666;BME280;59503;53.486;10.196;2023-02-01T00:48:27;101142.63;;;4.36;100.00
71666;BME280;59503;53.486;10.196;2023-02-01T00:50:53;101138.50;;;4.39;100.00
71666;BME280;59503;53.486;10.196;2023-02-01T00:53:18;101140.88;;;4.40;100.00
71666;BME280;59503;53.486;10.196;2023-02-01T00:55:45;101140.47;;;4.47;100.00
71666;BME280;59503;53.486;10.196;2023-02-01T00:58:11;101146.47;;;4.52;100.00
71666;BME280;59503;53.486;10.196;2023-02-01T01:00:36;101144.41;;;4.49;100.00
71666;BME280;59503;53.486;10.196;2023-02-01T01:03:05;101134.28;;;4.46;100.00
71666;BME280;59503;53.486;10.196;2023-02-01T01:05:46;101142.34;;;4.46;100.00
71666;BME280;59503;53.486;10.196;2023-02-01T01:08:13;101134.63;;;4.53;100.00
71666;BME280;59503;53.486;10.196;2023-02-01T01:10:38;101134.78;;;4.48;100.00
71666;BME280;59503;53.486;10.196;2023-02-01T01:13:04;101137.34;;;4.62;100.00
71666;BME280;59503;53.486;10.196;2023-02-01T01:15:30;101132.09;;;4.57;100.00
71666;BME280;59503;53.486;10.196;2023-02-01T01:17:55;101114.69;;;4.63;100.00
71666;BME280;59503;53.486;10.196;2023-02-01T01:20:21;101129.91;;;4.67;100.00
71666;BME280;59503;53.486;10.196;2023-02-01T01:22:47;101117.88;;;4.65;100.00
71666;BME280;59503;53.486;10.196;2023-02-01T01:25:13;101120.75;;;4.68;100.00
71666;BME280;59503;53.486;10.196;2023-02-01T01:27:39;101110.44;;;4.70;100.00
71666;BME280;59503;53.486;10.196;2023-02-01T01:30:06;101115.66;;;4.67;100.00
71666;BME280;59503;53.486;10.196;2023-02-01T01:32:32;101108.22;;;4.72;100.00
71666;BME280;59503;53.486;10.196;2023-02-01T01:34:58;101103.63;;;4.73;100.00
71666;BME280;59503;53.486;10.196;2023-02-01T01:37:23;101102.69;;;4.77;100.00
71666;BME280;59503;53.486;10.196;2023-02-01T01:39:49;101110.75;;;4.77;100.00
71666;BME280;59503;53.486;10.196;2023-02-01T01:42:14;101099.81;;;4.74;100.00
71666;BME280;59503;53.486;10.196;2023-02-01T01:45:00;101108.56;;;4.79;100.00
71666;BME280;59503;53.486;10.196;2023-02-01T01:47:33;101090.03;;;4.78;100.00
71666;BME280;59503;53.486;10.196;2023-02-01T01:50:02;101087.81;;;4.80;100.00
71666;BME280;59503;53.486;10.196;2023-02-01T01:52:29;101079.88;;;4.75;100.00
71666;BME280;59503;53.486;10.196;2023-02-01T01:54:54;101084.00;;;4.81;100.00
71666;BME280;59503;53.486;10.196;2023-02-01T01:59:56;101070.22;;;4.82;100.00
71666;BME280;59503;53.486;10.196;2023-02-01T02:02:24;101069.13;;;4.83;100.00
71666;BME280;59503;53.486;10.196;2023-02-01T02:04:50;101069.44;;;4.82;100.00
71666;BME280;59503;53.486;10.196;2023-02-01T02:07:23;101063.59;;;4.88;100.00
71666;BME280;59503;53.486;10.196;2023-02-01T02:09:50;101067.84;;;4.89;100.00
71666;BME280;59503;53.486;10.196;2023-02-01T02:12:16;101055.66;;;4.92;100.00
71666;BME280;59503;53.486;10.196;2023-02-01T02:14:41;101041.72;;;4.90;100.00
71666;BME280;59503;53.486;10.196;2023-02-01T02:17:28;101049.81;;;4.90;100.00
71666;BME280;59503;53.486;10.196;2023-02-01T02:23:19;101055.34;;;4.76;100.00
71666;BME280;59503;53.486;10.196;2023-02-01T02:29:04;101049.47;;;4.74;100.00
71666;BME280;59503;53.486;10.196;2023-02-01T02:34:18;101045.19;;;4.73;100.00
71666;BME280;59503;53.486;10.196;2023-02-01T02:37:10;101045.34;;;4.68;100.00
71666;BME280;59503;53.486;10.196;2023-02-01T02:39:44;101030.28;;;4.59;100.00
71666;BME280;59503;53.486;10.196;2023-02-01T02:42:41;101028.03;;;4.52;100.00
71666;BME280;59503;53.486;10.196;2023-02-01T02:45:31;101024.25;;;4.45;100.00
71666;BME280;59503;53.486;10.196;2023-02-01T02:48:47;101030.91;;;4.56;100.00
71666;BME280;59503;53.486;10.196;2023-02-01T02:51:32;101016.50;;;4.52;100.00
71666;BME280;59503;53.486;10.196;2023-02-01T02:54:24;101033.25;;;4.49;100.00
71666;BME280;59503;53.486;10.196;2023-02-01T02:57:23;101027.72;;;4.45;100.00
71666;BME280;59503;53.486;10.196;2023-02-01T03:00:12;101013.97;;;4.47;100.00
71666;BME280;59503;53.486;10.196;2023-02-01T03:02:58;101008.88;;;4.37;100.00
71666;BME280;59503;53.486;10.196;2023-02-01T03:05:47;101009.03;;;4.32;100.00
71666;BME280;59503;53.486;10.196;2023-02-01T03:08:19;100989.72;;;4.30;100.00
71666;BME280;59503;53.486;10.196;2023-02-01T03:13:42;100984.31;;;4.30;100.00
71666;BME280;59503;53.486;10.196;2023-02-01T03:16:32;100985.56;;;4.24;100.00
71666;BME280;59503;53.486;10.196;2023-02-01T03:21:39;100979.09;;;4.25;100.00
71666;BME280;59503;53.486;10.196;2023-02-01T03:24:15;100988.41;;;4.27;100.00
71666;BME280;59503;53.486;10.196;2023-02-01T03:26:46;100977.31;;;4.20;100.00
71666;BME280;59503;53.486;10.196;2023-02-01T03:29:18;100972.25;;;4.19;100.00
71666;BME280;59503;53.486;10.196;2023-02-01T03:31:45;100984.59;;;4.11;100.00
71666;BME280;59503;53.486;10.196;2023-02-01T03:34:12;100983.81;;;4.19;100.00
71666;BME280;59503;53.486;10.196;2023-02-01T03:36:48;100982.38;;;4.13;100.00
71666;BME280;59503;53.486;10.196;2023-02-01T03:42:04;100994.66;;;3.97;100.00
71666;BME280;59503;53.486;10.196;2023-02-01T03:44:39;100985.78;;;3.88;100.00
71666;BME280;59503;53.486;10.196;2023-02-01T03:47:16;101003.63;;;3.84;100.00
71666;BME280;59503;53.486;10.196;2023-02-01T03:50:03;100988.09;;;3.72;100.00
71666;BME280;59503;53.486;10.196;2023-02-01T03:52:38;100980.94;;;3.59;100.00
71666;BME280;59503;53.486;10.196;2023-02-01T03:55:06;100972.50;;;3.52;100.00
71666;BME280;59503;53.486;10.196;2023-02-01T03:57:35;100975.31;;;3.47;100.00
71666;BME280;59503;53.486;10.196;2023-02-01T04:00:09;100969.34;;;3.50;100.00
71666;BME280;59503;53.486;10.196;2023-02-01T04:02:40;100957.72;;;3.41;100.00
71666;BME280;59503;53.486;10.196;2023-02-01T04:05:06;100957.38;;;3.34;100.00
71666;BME280;59503;53.486;10.196;2023-02-01T04:07:31;100953.78;;;3.39;100.00
71666;BME280;59503;53.486;10.196;2023-02-01T04:09:57;100950.13;;;3.35;100.00
71666;BME280;59503;53.486;10.196;2023-02-01T04:12:22;100947.44;;;3.35;100.00
71666;BME280;59503;53.486;10.196;2023-02-01T04:14:48;100951.28;;;3.42;100.00
71666;BME280;59503;53.486;10.196;2023-02-01T04:17:13;100935.34;;;3.46;100.00
71666;BME280;59503;53.486;10.196;2023-02-01T04:19:39;100934.41;;;3.50;100.00
71666;BME280;59503;53.486;10.196;2023-02-01T04:22:04;100933.47;;;3.55;100.00
71666;BME280;59503;53.486;10.196;2023-02-01T04:24:29;100935.84;;;3.56;100.00
71666;BME280;59503;53.486;10.196;2023-02-01T04:26:55;100932.56;;;3.59;100.00
71666;BME280;59503;53.486;10.196;2023-02-01T04:29:20;100934.63;;;3.62;100.00
71666;BME280;59503;53.486;10.196;2023-02-01T04:31:46;100927.63;;;3.61;100.00
71666;BME280;59503;53.486;10.196;2023-02-01T04:34:11;100924.03;;;3.66;100.00
71666;BME280;59503;53.486;10.196;2023-02-01T04:36:37;100921.34;;;3.66;100.00
71666;BME280;59503;53.486;10.196;2023-02-01T04:39:02;100918.00;;;3.60;100.00
71666;BME280;59503;53.486;10.196;2023-02-01T04:41:27;100907.06;;;3.57;100.00
71666;BME280;59503;53.486;10.196;2023-02-01T04:43:54;100905.69;;;3.59;100.00
71666;BME280;59503;53.486;10.196;2023-02-01T04:46:19;100909.44;;;3.58;100.00
71666;BME280;59503;53.486;10.196;2023-02-01T04:48:45;100901.72;;;3.65;100.00
71666;BME280;59503;53.486;10.196;2023-02-01T04:51:10;100898.88;;;3.62;100.00
71666;BME280;59503;53.486;10.196;2023-02-01T04:53:36;100893.00;;;3.60;100.00
71666;BME280;59503;53.486;10.196;2023-02-01T04:56:02;100897.31;;;3.61;100.00
71666;BME280;59503;53.486;10.196;2023-02-01T04:58:27;100896.66;;;3.64;100.00
71666;BME280;59503;53.486;10.196;2023-02-01T05:00:53;100902.34;;;3.62;100.00
71666;BME280;59503;53.486;10.196;2023-02-01T05:03:18;100903.00;;;3.68;100.00
71666;BME280;59503;53.486;10.196;2023-02-01T05:05:44;100901.88;;;3.60;100.00
71666;BME280;59503;53.486;10.196;2023-02-01T05:08:09;100899.63;;;3.54;100.00
71666;BME280;59503;53.486;10.196;2023-02-01T05:10:35;100920.50;;;3.57;100.00
71666;BME280;59503;53.486;10.196;2023-02-01T05:13:00;100905.81;;;3.54;100.00
71666;BME280;59503;53.486;10.196;2023-02-01T05:15:44;100922.22;;;3.44;100.00
71666;BME280;59503;53.486;10.196;2023-02-01T05:18:11;100918.81;;;3.30;100.00
71666;BME280;59503;53.486;10.196;2023-02-01T05:20:37;100940.94;;;3.27;100.00
71666;BME280;59503;53.486;10.196;2023-02-01T05:23:02;100931.66;;;3.11;100.00
71666;BME280;59503;53.486;10.196;2023-02-01T05:25:28;100929.34;;;2.96;100.00
71666;BME280;59503;53.486;10.196;2023-02-01T05:27:53;100936.56;;;2.87;100.00
71666;BME280;59503;53.486;10.196;2023-02-01T05:30:19;100941.25;;;2.82;100.00
71666;BME280;59503;53.486;10.196;2023-02-01T05:32:44;100924.28;;;2.73;100.00
71666;BME280;59503;53.486;10.196;2023-02-01T05:35:10;100906.50;;;2.54;100.00
71666;BME280;59503;53.486;10.196;2023-02-01T05:37:35;100895.38;;;2.47;100.00
71666;BME280;59503;53.486;10.196;2023-02-01T05:40:01;100888.25;;;2.43;100.00
71666;BME280;59503;53.486;10.196;2023-02-01T05:42:26;100881.72;;;2.35;100.00
71666;BME280;59503;53.486;10.196;2023-02-01T05:44:51;100867.03;;;2.33;100.00
71666;BME280;59503;53.486;10.196;2023-02-01T05:47:17;100891.97;;;2.33;100.00
71666;BME280;59503;53.486;10.196;2023-02-01T05:49:42;100911.22;;;2.35;100.00
71666;BME280;59503;53.486;10.196;2023-02-01T05:52:08;100902.25;;;2.18;100.00
71666;BME280;59503;53.486;10.196;2023-02-01T05:54:33;100907.91;;;2.16;100.00
71666;BME280;59503;53.486;10.196;2023-02-01T05:56:59;100915.16;;;2.02;100.00
71666;BME280;59503;53.486;10.196;2023-02-01T05:59:25;100923.41;;;2.06;100.00
71666;BME280;59503;53.486;10.196;2023-02-01T06:01:50;100926.38;;;2.04;100.00
71666;BME280;59503;53.486;10.196;2023-02-01T06:04:15;100931.84;;;1.99;100.00
71666;BME280;59503;53.486;10.196;2023-02-01T06:06:41;100925.00;;;1.93;100.00
71666;BME280;59503;53.486;10.196;2023-02-01T06:09:06;100925.19;;;1.97;100.00
71666;BME280;59503;53.486;10.196;2023-02-01T06:11:32;100921.03;;;1.91;100.00
71666;BME280;59503;53.486;10.196;2023-02-01T06:13:57;100918.47;;;1.86;100.00
71666;BME280;59503;53.486;10.196;2023-02-01T06:16:23;100920.75;;;1.92;100.00
71666;BME280;59503;53.486;10.196;2023-02-01T06:18:48;100921.13;;;1.99;100.00
71666;BME280;59503;53.486;10.196;2023-02-01T06:21:14;100921.22;;;2.08;100.00
71666;BME280;59503;53.486;10.196;2023-02-01T06:23:49;100919.84;;;1.97;100.00
71666;BME280;59503;53.486;10.196;2023-02-01T06:26:14;100901.16;;;2.05;100.00
71666;BME280;59503;53.486;10.196;2023-02-01T06:28:39;100903.34;;;2.03;100.00
71666;BME280;59503;53.486;10.196;2023-02-01T06:31:06;100910.81;;;2.06;100.00
71666;BME280;59503;53.486;10.196;2023-02-01T06:33:36;100909.09;;;2.10;100.00
71666;BME280;59503;53.486;10.196;2023-02-01T06:36:03;100901.81;;;2.24;100.00
71666;BME280;59503;53.486;10.196;2023-02-01T06:38:30;100898.94;;;2.21;100.00
71666;BME280;59503;53.486;10.196;2023-02-01T06:40:57;100906.25;;;2.29;100.00
71666;BME280;59503;53.486;10.196;2023-02-01T06:43:24;100906.75;;;2.31;100.00
71666;BME280;59503;53.486;10.196;2023-02-01T06:45:50;100914.38;;;2.37;100.00
71666;BME280;59503;53.486;10.196;2023-02-01T06:48:16;100910.22;;;2.45;100.00
71666;BME280;59503;53.486;10.196;2023-02-01T06:50:43;100911.34;;;2.52;100.00
71666;BME280;59503;53.486;10.196;2023-02-01T06:53:08;100905.09;;;2.57;100.00
71666;BME280;59503;53.486;10.196;2023-02-01T06:55:34;100906.38;;;2.60;100.00
71666;BME280;59503;53.486;10.196;2023-02-01T06:57:59;100900.38;;;2.63;100.00
71666;BME280;59503;53.486;10.196;2023-02-01T07:00:27;100882.28;;;2.68;100.00
71666;BME280;59503;53.486;10.196;2023-02-01T07:02:53;100883.53;;;2.71;100.00
71666;BME280;59503;53.486;10.196;2023-02-01T07:05:18;100888.66;;;2.81;100.00
71666;BME280;59503;53.486;10.196;2023-02-01T07:07:44;100903.88;;;2.85;100.00
71666;BME280;59503;53.486;10.196;2023-02-01T07:10:10;100909.16;;;2.99;100.00
71666;BME280;59503;53.486;10.196;2023-02-01T07:12:35;100910.56;;;2.96;100.00
71666;BME280;59503;53.486;10.196;2023-02-01T07:15:02;100893.69;;;3.04;100.00
71666;BME280;59503;53.486;10.196;2023-02-01T07:17:28;100909.66;;;3.01;100.00
71666;BME280;59503;53.486;10.196;2023-02-01T07:19:57;100907.00;;;3.09;100.00
71666;BME280;59503;53.486;10.196;2023-02-01T07:22:25;100895.19;;;3.10;100.00
71666;BME280;59503;53.486;10.196;2023-02-01T07:24:50;100900.28;;;3.20;100.00
71666;BME280;59503;53.486;10.196;2023-02-01T07:27:16;100901.22;;;3.24;100.00
71666;BME280;59503;53.486;10.196;2023-02-01T07:29:41;100905.66;;;3.20;100.00
71666;BME280;59503;53.486;10.196;2023-02-01T07:32:07;100907.59;;;3.28;100.00
71666;BME280;59503;53.486;10.196;2023-02-01T07:34:32;100904.13;;;3.36;100.00
71666;BME280;59503;53.486;10.196;2023-02-01T07:36:59;100896.56;;;3.38;100.00
71666;BME280;59503;53.486;10.196;2023-02-01T07:39:24;100905.28;;;3.44;100.00
71666;BME280;59503;53.486;10.196;2023-02-01T07:41:50;100904.13;;;3.36;100.00
71666;BME280;59503;53.486;10.196;2023-02-01T07:44:15;100920.97;;;3.50;100.00
71666;BME280;59503;53.486;10.196;2023-02-01T07:46:41;100911.78;;;3.51;100.00
71666;BME280;59503;53.486;10.196;2023-02-01T07:49:08;100891.22;;;3.47;100.00
71666;BME280;59503;53.486;10.196;2023-02-01T07:51:33;100902.00;;;3.55;100.00
71666;BME280;59503;53.486;10.196;2023-02-01T07:53:59;100911.78;;;3.51;100.00
71666;BME280;59503;53.486;10.196;2023-02-01T07:56:24;100908.19;;;3.56;100.00
71666;BME280;59503;53.486;10.196;2023-02-01T07:58:52;100899.34;;;3.64;100.00
71666;BME280;59503;53.486;10.196;2023-02-01T08:01:20;100897.47;;;3.73;100.00
71666;BME280;59503;53.486;10.196;2023-02-01T08:03:49;100903.81;;;3.77;100.00
71666;BME280;59503;53.486;10.196;2023-02-01T08:06:15;100910.78;;;3.78;100.00
71666;BME280;59503;53.486;10.196;2023-02-01T08:08:41;100908.75;;;3.83;100.00
71666;BME280;59503;53.486;10.196;2023-02-01T08:11:07;100913.63;;;3.81;100.00
71666;BME280;59503;53.486;10.196;2023-02-01T08:13:33;100918.41;;;4.02;100.00
71666;BME280;59503;53.486;10.196;2023-02-01T08:16:04;100908.78;;;4.01;100.00
71666;BME280;59503;53.486;10.196;2023-02-01T08:18:30;100915.44;;;4.03;100.00
71666;BME280;59503;53.486;10.196;2023-02-01T08:20:56;100922.06;;;4.06;100.00
71666;BME280;59503;53.486;10.196;2023-02-01T08:23:22;100923.97;;;4.14;100.00
71666;BME280;59503;53.486;10.196;2023-02-01T08:25:48;100920.69;;;4.08;100.00
71666;BME280;59503;53.486;10.196;2023-02-01T08:28:14;100914.34;;;4.13;100.00
71666;BME280;59503;53.486;10.196;2023-02-01T08:30:40;100929.38;;;4.22;100.00
71666;BME280;59503;53.486;10.196;2023-02-01T08:33:07;100931.13;;;4.27;100.00
71666;BME280;59503;53.486;10.196;2023-02-01T08:35:35;100936.50;;;4.27;100.00
71666;BME280;59503;53.486;10.196;2023-02-01T08:38:01;100936.84;;;4.42;100.00
71666;BME280;59503;53.486;10.196;2023-02-01T08:40:26;100920.06;;;4.45;100.00
71666;BME280;59503;53.486;10.196;2023-02-01T08:42:51;100934.81;;;4.65;100.00
71666;BME280;59503;53.486;10.196;2023-02-01T08:45:23;100932.88;;;4.74;100.00
71666;BME280;59503;53.486;10.196;2023-02-01T08:47:55;100919.88;;;4.93;100.00
71666;BME280;59503;53.486;10.196;2023-02-01T08:50:22;100924.28;;;4.97;100.00
71666;BME280;59503;53.486;10.196;2023-02-01T08:52:48;100928.13;;;4.88;100.00
71666;BME280;59503;53.486;10.196;2023-02-01T08:55:14;100933.03;;;4.86;100.00
71666;BME280;59503;53.486;10.196;2023-02-01T08:57:40;100920.53;;;4.81;100.00
71666;BME280;59503;53.486;10.196;2023-02-01T09:00:14;100905.34;;;4.77;100.00
71666;BME280;59503;53.486;10.196;2023-02-01T09:02:41;100911.00;;;4.84;100.00
71666;BME280;59503;53.486;10.196;2023-02-01T09:05:07;100893.94;;;4.80;100.00
71666;BME280;59503;53.486;10.196;2023-02-01T09:07:33;100903.56;;;4.89;100.00
71666;BME280;59503;53.486;10.196;2023-02-01T09:09:59;100898.34;;;4.93;100.00
71666;BME280;59503;53.486;10.196;2023-02-01T09:12:27;100905.63;;;4.84;100.00
71666;BME280;59503;53.486;10.196;2023-02-01T09:14:55;100902.75;;;4.89;100.00
71666;BME280;59503;53.486;10.196;2023-02-01T09:17:20;100908.78;;;5.03;100.00
71666;BME280;59503;53.486;10.196;2023-02-01T09:19:46;100891.03;;;5.02;100.00
71666;BME280;59503;53.486;10.196;2023-02-01T09:22:11;100896.44;;;5.02;100.00
71666;BME280;59503;53.486;10.196;2023-02-01T09:24:37;100902.88;;;5.09;100.00
71666;BME280;59503;53.486;10.196;2023-02-01T09:27:03;100890.19;;;5.19;100.00
71666;BME280;59503;53.486;10.196;2023-02-01T09:29:28;100896.69;;;5.18;100.00
71666;BME280;59503;53.486;10.196;2023-02-01T09:31:54;100887.34;;;5.15;100.00
71666;BME280;59503;53.486;10.196;2023-02-01T09:34:19;100910.47;;;5.16;100.00
71666;BME280;59503;53.486;10.196;2023-02-01T09:36:44;100902.25;;;5.04;100.00
71666;BME280;59503;53.486;10.196;2023-02-01T09:39:10;100912.59;;;4.85;100.00
71666;BME280;59503;53.486;10.196;2023-02-01T09:42:05;100917.84;;;4.73;100.00
71666;BME280;59503;53.486;10.196;2023-02-01T09:45:00;100916.56;;;4.70;100.00
71666;BME280;59503;53.486;10.196;2023-02-01T09:47:28;100933.53;;;4.71;100.00
71666;BME280;59503;53.486;10.196;2023-02-01T09:50:14;100928.94;;;4.71;100.00
71666;BME280;59503;53.486;10.196;2023-02-01T09:58:00;100920.03;;;4.88;100.00
71666;BME280;59503;53.486;10.196;2023-02-01T10:00:35;100924.16;;;4.94;100.00
71666;BME280;59503;53.486;10.196;2023-02-01T10:03:01;100918.56;;;5.07;100.00
71666;BME280;59503;53.486;10.196;2023-02-01T10:08:16;100907.41;;;5.35;100.00
71666;BME280;59503;53.486;10.196;2023-02-01T10:10:48;100907.38;;;5.43;100.00
71666;BME280;59503;53.486;10.196;2023-02-01T10:16:19;100916.53;;;5.59;100.00
71666;BME280;59503;53.486;10.196;2023-02-01T10:18:57;100921.88;;;5.68;100.00
71666;BME280;59503;53.486;10.196;2023-02-01T10:24:40;100912.06;;;5.63;100.00
71666;BME280;59503;53.486;10.196;2023-02-01T10:27:22;100915.88;;;5.62;100.00
71666;BME280;59503;53.486;10.196;2023-02-01T10:29:59;100914.28;;;5.61;100.00
71666;BME280;59503;53.486;10.196;2023-02-01T10:32:32;100920.34;;;5.50;100.00
71666;BME280;59503;53.486;10.196;2023-02-01T10:35:11;100899.47;;;5.38;100.00
71666;BME280;59503;53.486;10.196;2023-02-01T10:37:40;100910.91;;;5.35;100.00
71666;BME280;59503;53.486;10.196;2023-02-01T10:40:23;100916.28;;;5.35;100.00
71666;BME280;59503;53.486;10.196;2023-02-01T10:42:51;100906.84;;;5.21;100.00
71666;BME280;59503;53.486;10.196;2023-02-01T10:45:20;100889.72;;;5.17;100.00
71666;BME280;59503;53.486;10.196;2023-02-01T10:47:49;100893.88;;;5.14;100.00
71666;BME280;59503;53.486;10.196;2023-02-01T10:50:35;100900.84;;;5.06;100.00
71666;BME280;59503;53.486;10.196;2023-02-01T10:55:53;100879.00;;;4.91;100.00
71666;BME280;59503;53.486;10.196;2023-02-01T10:58:30;100858.09;;;4.88;100.00
71666;BME280;59503;53.486;10.196;2023-02-01T11:01:07;100864.63;;;4.87;100.00
71666;BME280;59503;53.486;10.196;2023-02-01T11:08:45;100856.53;;;4.87;100.00
71666;BME280;59503;53.486;10.196;2023-02-01T11:11:11;100836.56;;;4.79;100.00
71666;BME280;59503;53.486;10.196;2023-02-01T11:13:39;100842.59;;;4.85;100.00
71666;BME280;59503;53.486;10.196;2023-02-01T11:16:05;100833.72;;;4.76;100.00
71666;BME280;59503;53.486;10.196;2023-02-01T11:18:38;100830.69;;;4.86;100.00
71666;BME280;59503;53.486;10.196;2023-02-01T11:21:08;100819.91;;;4.94;100.00
71666;BME280;59503;53.486;10.196;2023-02-01T11:23:41;100814.38;;;4.91;100.00
71666;BME280;59503;53.486;10.196;2023-02-01T11:26:14;100808.81;;;4.87;100.00
71666;BME280;59503;53.486;10.196;2023-02-01T11:28:47;100809.44;;;5.01;100.00
71666;BME280;59503;53.486;10.196;2023-02-01T11:31:15;100807.22;;;4.95;100.00
71666;BME280;59503;53.486;10.196;2023-02-01T11:33:48;100797.69;;;4.97;100.00
71666;BME280;59503;53.486;10.196;2023-02-01T11:36:19;100807.41;;;4.90;100.00
71666;BME280;59503;53.486;10.196;2023-02-01T11:38:52;100808.03;;;4.95;100.00
71666;BME280;59503;53.486;10.196;2023-02-01T11:41:27;100799.16;;;4.95;100.00
71666;BME280;59503;53.486;10.196;2023-02-01T11:44:00;100800.53;;;5.01;100.00
71666;BME280;59503;53.486;10.196;2023-02-01T11:46:32;100790.25;;;5.03;100.00
71666;BME280;59503;53.486;10.196;2023-02-01T11:49:25;100790.25;;;5.03;100.00
71666;BME280;59503;53.486;10.196;2023-02-01T11:55:17;100773.69;;;5.22;100.00
71666;BME280;59503;53.486;10.196;2023-02-01T12:00:35;100779.88;;;5.22;100.00
71666;BME280;59503;53.486;10.196;2023-02-01T12:05:47;100791.28;;;5.19;100.00
71666;BME280;59503;53.486;10.196;2023-02-01T12:08:28;100783.84;;;5.16;100.00
71666;BME280;59503;53.486;10.196;2023-02-01T12:11:21;100775.47;;;5.09;100.00
71666;BME280;59503;53.486;10.196;2023-02-01T12:14:24;100759.66;;;4.99;100.00
71666;BME280;59503;53.486;10.196;2023-02-01T12:17:11;100764.63;;;4.88;100.00
71666;BME280;59503;53.486;10.196;2023-02-01T12:22:23;100759.66;;;4.61;100.00
71666;BME280;59503;53.486;10.196;2023-02-01T12:27:51;100753.63;;;4.64;100.00
71666;BME280;59503;53.486;10.196;2023-02-01T12:30:28;100755.06;;;4.62;100.00
71666;BME280;59503;53.486;10.196;2023-02-01T12:33:25;100741.16;;;4.60;100.00
71666;BME280;59503;53.486;10.196;2023-02-01T12:36:19;100745.91;;;4.54;100.00
71666;BME280;59503;53.486;10.196;2023-02-01T12:41:55;100755.44;;;4.52;100.00
71666;BME280;59503;53.486;10.196;2023-02-01T12:44:42;100746.41;;;4.48;100.00
71666;BME280;59503;53.486;10.196;2023-02-01T12:50:01;100759.06;;;4.39;100.00
71666;BME280;59503;53.486;10.196;2023-02-01T12:52:47;100784.25;;;4.26;100.00
71666;BME280;59503;53.486;10.196;2023-02-01T12:55:19;100788.09;;;4.16;100.00
71666;BME280;59503;53.486;10.196;2023-02-01T12:57:58;100786.34;;;3.95;100.00
71666;BME280;59503;53.486;10.196;2023-02-01T13:00:30;100782.06;;;3.94;100.00
71666;BME280;59503;53.486;10.196;2023-02-01T13:03:03;100794.88;;;3.79;100.00
71666;BME280;59503;53.486;10.196;2023-02-01T13:05:47;100787.41;;;3.68;100.00
71666;BME280;59503;53.486;10.196;2023-02-01T13:08:20;100785.03;;;3.66;100.00
71666;BME280;59503;53.486;10.196;2023-02-01T13:10:58;100784.59;;;3.64;100.00
71666;BME280;59503;53.486;10.196;2023-02-01T13:13:39;100779.81;;;3.53;100.00
71666;BME280;59503;53.486;10.196;2023-02-01T13:19:10;100772.97;;;3.38;100.00
71666;BME280;59503;53.486;10.196;2023-02-01T13:21:43;100763.97;;;3.43;100.00
71666;BME280;59503;53.486;10.196;2023-02-01T13:27:03;100772.84;;;3.43;100.00
71666;BME280;59503;53.486;10.196;2023-02-01T13:29:30;100762.56;;;3.45;100.00
71666;BME280;59503;53.486;10.196;2023-02-01T13:32:19;100749.94;;;3.46;100.00
71666;BME280;59503;53.486;10.196;2023-02-01T13:35:09;100762.28;;;3.55;100.00
71666;BME280;59503;53.486;10.196;2023-02-01T13:40:39;100747.75;;;3.91;100.00
71666;BME280;59503;53.486;10.196;2023-02-01T13:43:12;100770.97;;;3.95;100.00
71666;BME280;59503;53.486;10.196;2023-02-01T13:45:44;100766.88;;;3.98;100.00
71666;BME280;59503;53.486;10.196;2023-02-01T13:48:20;100768.94;;;4.01;100.00
71666;BME280;59503;53.486;10.196;2023-02-01T13:50:51;100770.34;;;4.15;100.00
71666;BME280;59503;53.486;10.196;2023-02-01T13:53:23;100755.00;;;4.16;100.00
71666;BME280;59503;53.486;10.196;2023-02-01T13:56:12;100768.44;;;4.16;100.00
71666;BME280;59503;53.486;10.196;2023-02-01T13:58:41;100755.16;;;4.19;100.00
71666;BME280;59503;53.486;10.196;2023-02-01T14:08:46;100760.22;;;4.12;100.00
71666;BME280;59503;53.486;10.196;2023-02-01T14:11:38;100767.97;;;4.14;100.00
71666;BME280;59503;53.486;10.196;2023-02-01T14:16:40;100736.47;;;4.31;100.00
71666;BME280;59503;53.486;10.196;2023-02-01T14:19:23;100744.66;;;4.52;100.00